createdAt,value
2022-08-11T00:02:04.599Z,97.34
2022-08-11T00:04:39.423Z,97.70
2022-08-11T00:07:09.546Z,97.46
2022-08-11T00:09:40.953Z,97.72
2022-08-11T00:12:16.469Z,97.51
2022-08-11T00:14:47.457Z,97.96
2022-08-11T00:17:18.810Z,98.08
2022-08-11T00:20:12.583Z,98.15
2022-08-11T00:22:44.020Z,97.24
2022-08-11T00:25:15.390Z,93.25
2022-08-11T00:27:45.144Z,93.69
2022-08-11T00:30:15.299Z,95.33
2022-08-11T00:32:54.863Z,95.64
2022-08-11T00:35:51.366Z,96.49
2022-08-11T00:38:27.372Z,96.29
2022-08-11T00:41:06.833Z,96.71
2022-08-11T00:44:03.435Z,96.60
2022-08-11T00:46:48.487Z,97.81
2022-08-11T00:49:41.014Z,97.02
2022-08-11T00:52:29.824Z,97.80
2022-08-11T00:56:03.026Z,97.08
2022-08-11T00:59:32.323Z,96.60
2022-08-11T01:02:20.728Z,97.35
2022-08-11T01:05:36.866Z,97.37
2022-08-11T01:08:47.783Z,97.54
2022-08-11T01:11:55.360Z,97.43
2022-08-11T01:15:13.039Z,97.24
2022-08-11T01:18:30.745Z,97.71
2022-08-11T01:21:54.252Z,97.63
2022-08-11T01:25:56.856Z,99.01
2022-08-11T01:29:34.443Z,96.67
2022-08-11T01:32:46.789Z,97.47
2022-08-11T01:35:52.501Z,98.25
2022-08-11T01:39:12.053Z,97.78
2022-08-11T01:42:59.543Z,97.94
2022-08-11T01:45:41.712Z,97.98
2022-08-11T01:48:23.744Z,98.65
2022-08-11T01:51:17.046Z,97.71
2022-08-11T01:53:58.198Z,98.46
2022-08-11T01:56:50.641Z,98.98
2022-08-11T01:59:25.814Z,99.16
2022-08-11T02:02:46.107Z,99.58
2022-08-11T02:05:30.162Z,99.44
2022-08-11T02:08:12.754Z,99.35
2022-08-11T02:11:07.800Z,99.68
2022-08-11T02:13:50.690Z,100.00
2022-08-11T02:16:34.387Z,100.00
2022-08-11T02:19:39.393Z,100.00
2022-08-11T02:22:37.656Z,100.00
2022-08-11T02:25:21.641Z,100.00
2022-08-11T02:28:04.247Z,100.00
2022-08-11T02:30:40.579Z,100.00
2022-08-11T02:33:25.039Z,100.00
2022-08-11T02:36:08.417Z,100.00
2022-08-11T02:38:54.232Z,100.00
2022-08-11T02:41:56.533Z,100.00
2022-08-11T02:44:35.522Z,100.00
2022-08-11T02:47:14.989Z,100.00
2022-08-11T02:50:07.196Z,100.00
2022-08-11T02:52:51.909Z,100.00
2022-08-11T02:55:48.910Z,100.00
2022-08-11T02:58:42.613Z,100.00
2022-08-11T03:01:21.074Z,100.00
2022-08-11T03:04:01.503Z,98.31
2022-08-11T03:06:40.102Z,97.26
2022-08-11T03:09:23.327Z,98.92
2022-08-11T03:12:24.965Z,100.00
2022-08-11T03:15:21.531Z,100.00
2022-08-11T03:18:05.385Z,100.00
2022-08-11T03:20:47.750Z,100.00
2022-08-11T03:23:28.334Z,100.00
2022-08-11T03:26:07.558Z,100.00
2022-08-11T03:28:52.731Z,100.00
2022-08-11T03:31:30.618Z,100.00
2022-08-11T03:34:08.351Z,100.00
2022-08-11T03:37:17.627Z,100.00
2022-08-11T03:40:00.830Z,100.00
2022-08-11T03:42:43.229Z,100.00
2022-08-11T03:45:26.229Z,100.00
2022-08-11T03:48:24.468Z,100.00
2022-08-11T03:51:15.173Z,98.34
2022-08-11T03:54:11.480Z,95.78
2022-08-11T03:57:25.662Z,94.62
2022-08-11T04:00:36.387Z,95.17
2022-08-11T04:03:49.298Z,97.50
2022-08-11T04:07:25.545Z,98.26
2022-08-11T04:10:33.029Z,97.79
2022-08-11T04:13:38.853Z,98.75
2022-08-11T04:16:30.142Z,99.87
2022-08-11T04:20:11.601Z,98.90
2022-08-11T04:23:13.642Z,99.33
2022-08-11T04:26:49.274Z,99.31
2022-08-11T04:30:05.221Z,98.60
2022-08-11T04:33:01.199Z,96.67
2022-08-11T04:35:51.367Z,96.46
2022-08-11T04:39:03.864Z,96.86
2022-08-11T04:42:43.445Z,95.82
2022-08-11T04:45:48.637Z,94.62
2022-08-11T04:49:03.696Z,92.67
2022-08-11T04:52:24.036Z,91.59
2022-08-11T04:55:51.134Z,90.25
2022-08-11T04:58:54.237Z,88.48
2022-08-11T05:01:43.443Z,87.79
2022-08-11T05:04:57.133Z,88.00
2022-08-11T05:08:28.495Z,89.24
2022-08-11T05:11:31.685Z,89.08
2022-08-11T05:14:52.992Z,85.72
2022-08-11T05:17:54.665Z,84.83
2022-08-11T05:20:44.166Z,83.36
2022-08-11T05:23:33.815Z,82.71
2022-08-11T05:26:47.117Z,83.48
2022-08-11T05:29:47.531Z,79.41
2022-08-11T05:32:36.497Z,79.98
2022-08-11T05:35:08.504Z,79.05
2022-08-11T05:38:03.307Z,77.46
2022-08-11T05:40:53.127Z,80.61
2022-08-11T05:44:21.710Z,75.61
2022-08-11T05:46:57.988Z,77.50
2022-08-11T05:49:50.310Z,72.13
2022-08-11T05:52:55.295Z,70.98
2022-08-11T05:56:03.346Z,70.41
2022-08-11T05:58:42.990Z,74.17
2022-08-11T06:01:15.319Z,75.27
2022-08-11T06:04:04.426Z,73.47
2022-08-11T06:06:33.784Z,72.48
2022-08-11T06:09:03.830Z,72.97
2022-08-11T06:11:43.977Z,70.92
2022-08-11T06:14:16.570Z,65.12
2022-08-11T06:16:50.814Z,63.57
2022-08-11T06:19:24.869Z,62.88
2022-08-11T06:21:54.454Z,59.21
2022-08-11T06:24:23.967Z,59.49
2022-08-11T06:27:11.807Z,61.04
2022-08-11T06:29:55.027Z,65.13
2022-08-11T06:32:32.506Z,59.93
2022-08-11T06:35:25.394Z,64.77
2022-08-11T06:38:09.057Z,58.72
2022-08-11T06:41:09.495Z,57.30
2022-08-11T06:43:55.882Z,60.71
2022-08-11T06:46:31.224Z,61.60
2022-08-11T06:49:04.073Z,62.12
2022-08-11T06:51:37.223Z,58.54
2022-08-11T06:54:16.053Z,56.42
2022-08-11T06:57:29.927Z,58.01
2022-08-11T07:00:13.635Z,59.08
2022-08-11T07:02:53.094Z,58.15
2022-08-11T07:05:29.648Z,53.95
2022-08-11T07:09:17.756Z,50.57
2022-08-11T07:12:58.954Z,45.86
2022-08-11T07:16:11.673Z,47.75
2022-08-11T07:18:55.015Z,43.47
2022-08-11T07:22:03.182Z,44.86
2022-08-11T07:25:02.470Z,44.20
2022-08-11T07:28:01.736Z,45.79
2022-08-11T07:30:32.904Z,44.26
2022-08-11T07:33:04.758Z,47.00
2022-08-11T07:35:39.628Z,44.25
2022-08-11T07:38:22.089Z,42.65
2022-08-11T07:40:52.883Z,39.66
2022-08-11T07:43:22.125Z,37.12
2022-08-11T07:46:08.297Z,38.57
2022-08-11T07:48:55.343Z,39.04
2022-08-11T07:51:43.043Z,34.82
2022-08-11T07:54:17.137Z,33.46
2022-08-11T07:56:54.721Z,34.59
2022-08-11T08:00:04.086Z,33.86
2022-08-11T08:02:59.733Z,31.26
2022-08-11T08:05:47.880Z,34.45
2022-08-11T08:08:35.585Z,32.65
2022-08-11T08:11:27.680Z,34.78
2022-08-11T08:14:14.850Z,33.88
2022-08-11T08:17:02.305Z,34.99
2022-08-11T08:19:33.768Z,34.22
2022-08-11T08:22:06.138Z,34.93
2022-08-11T08:24:56.374Z,31.48
2022-08-11T08:27:27.630Z,33.33
2022-08-11T08:30:18.671Z,34.67
2022-08-11T08:32:47.643Z,32.67
2022-08-11T08:35:17.217Z,29.06
2022-08-11T08:37:47.699Z,28.23
2022-08-11T08:40:19.131Z,32.54
2022-08-11T08:42:55.103Z,28.12
2022-08-11T08:45:27.443Z,29.95
2022-08-11T08:48:01.887Z,31.49
2022-08-11T08:50:55.041Z,32.50
2022-08-11T08:53:31.031Z,33.77
2022-08-11T08:56:04.036Z,33.98
2022-08-11T08:58:35.772Z,30.93
2022-08-11T09:01:05.672Z,32.52
2022-08-11T09:04:04.650Z,33.33
2022-08-11T09:06:31.494Z,33.21
2022-08-11T09:09:01.031Z,31.58
2022-08-11T09:11:48.775Z,33.28
2022-08-11T09:14:18.998Z,36.39
2022-08-11T09:16:50.183Z,38.73
2022-08-11T09:19:21.935Z,34.89
2022-08-11T09:22:08.889Z,35.73
2022-08-11T09:24:57.533Z,37.11
2022-08-11T09:27:29.125Z,37.10
2022-08-11T09:29:58.277Z,35.84
2022-08-11T09:32:29.369Z,35.82
2022-08-11T09:34:58.974Z,32.54
2022-08-11T09:37:54.172Z,31.17
2022-08-11T09:40:32.473Z,29.58
2022-08-11T09:43:24.471Z,32.61
2022-08-11T09:45:55.668Z,31.52
2022-08-11T09:48:28.349Z,30.33
2022-08-11T09:51:01.644Z,29.28
2022-08-11T09:53:40.506Z,28.16
2022-08-11T09:56:33.437Z,26.79
2022-08-11T09:59:05.912Z,30.50
2022-08-11T10:01:42.318Z,30.22
2022-08-11T10:04:16.497Z,30.83
2022-08-11T10:07:04.418Z,28.22
2022-08-11T10:09:41.953Z,29.35
2022-08-11T10:12:15.568Z,28.43
2022-08-11T10:15:06.960Z,30.22
2022-08-11T10:18:03.926Z,31.17
2022-08-11T10:20:37.555Z,31.15
2022-08-11T10:23:24.331Z,29.58
2022-08-11T10:26:11.027Z,27.60
2022-08-11T10:29:09.698Z,30.31
2022-08-11T10:31:57.942Z,29.22
2022-08-11T10:34:29.609Z,28.38
2022-08-11T10:37:03.181Z,32.56
2022-08-11T10:39:33.061Z,33.64
2022-08-11T10:42:30.230Z,33.36
2022-08-11T10:45:29.108Z,30.95
2022-08-11T10:47:59.807Z,31.68
2022-08-11T10:50:47.093Z,31.08
2022-08-11T10:53:34.481Z,34.76
2022-08-11T10:56:23.993Z,37.50
2022-08-11T10:58:54.363Z,38.77
2022-08-11T11:01:27.127Z,36.87
2022-08-11T11:04:03.029Z,38.05
2022-08-11T11:06:44.861Z,35.23
2022-08-11T11:09:20.461Z,33.52
2022-08-11T11:12:11.657Z,31.57
2022-08-11T11:15:02.204Z,34.12
2022-08-11T11:17:56.425Z,33.85
2022-08-11T11:20:38.633Z,35.11
2022-08-11T11:23:17.801Z,32.62
2022-08-11T11:26:14.913Z,32.48
2022-08-11T11:29:24.880Z,33.79
2022-08-11T11:32:19.525Z,33.18
2022-08-11T11:35:34.040Z,33.92
2022-08-11T11:38:13.787Z,34.96
2022-08-11T11:40:43.875Z,36.77
2022-08-11T11:43:13.209Z,36.11
2022-08-11T11:45:44.575Z,38.59
2022-08-11T11:48:13.766Z,38.59
2022-08-11T11:50:44.171Z,38.41
2022-08-11T11:53:14.747Z,38.84
2022-08-11T11:55:45.017Z,37.53
2022-08-11T11:58:32.634Z,36.59
2022-08-11T12:01:24.210Z,37.19
2022-08-11T12:03:56.642Z,40.55
2022-08-11T12:06:45.741Z,39.11
2022-08-11T12:09:23.282Z,40.21
2022-08-11T12:12:16.256Z,42.45
2022-08-11T12:14:45.364Z,41.84
2022-08-11T12:17:14.359Z,43.95
2022-08-11T12:19:48.318Z,40.83
2022-08-11T12:22:47.712Z,42.11
2022-08-11T12:25:36.688Z,39.14
2022-08-11T12:28:06.241Z,39.96
2022-08-11T12:30:35.002Z,39.51
2022-08-11T12:33:04.049Z,39.17
2022-08-11T12:35:35.254Z,38.09
2022-08-11T12:38:10.671Z,38.40
2022-08-11T12:41:18.032Z,36.13
2022-08-11T12:44:06.642Z,34.93
2022-08-11T12:46:38.722Z,43.23
2022-08-11T12:49:32.398Z,49.10
2022-08-11T12:52:15.550Z,54.47
2022-08-11T12:54:59.782Z,57.57
2022-08-11T12:57:52.755Z,62.08
2022-08-11T13:00:42.061Z,66.09
2022-08-11T13:03:30.947Z,66.07
2022-08-11T13:06:04.152Z,64.37
2022-08-11T13:12:31.377Z,67.80
2022-08-11T13:15:04.358Z,52.01
2022-08-11T13:17:43.628Z,50.17
2022-08-11T13:20:15.149Z,48.23
2022-08-11T13:22:46.017Z,44.65
2022-08-11T13:25:17.626Z,45.44
2022-08-11T13:28:07.318Z,45.29
2022-08-11T13:30:55.763Z,46.54
2022-08-11T13:33:26.187Z,45.68
2022-08-11T13:35:56.719Z,44.94
2022-08-11T13:38:27.632Z,44.82
2022-08-11T13:40:58.031Z,46.22
2022-08-11T13:43:28.646Z,46.73
2022-08-11T13:46:13.459Z,46.44
2022-08-11T13:48:43.310Z,46.39
2022-08-11T13:51:34.659Z,46.49
2022-08-11T13:54:09.124Z,45.77
2022-08-11T13:56:40.905Z,45.54
2022-08-11T13:59:11.560Z,44.15
2022-08-11T14:02:22.793Z,43.93
2022-08-11T14:04:52.905Z,44.20
2022-08-11T14:07:25.600Z,46.87
2022-08-11T14:10:00.012Z,47.28
2022-08-11T14:12:50.718Z,47.91
2022-08-11T14:15:25.223Z,46.79
2022-08-11T14:18:01.775Z,48.06
2022-08-11T14:20:54.873Z,49.15
2022-08-11T14:23:28.976Z,49.98
2022-08-11T14:26:16.343Z,50.82
2022-08-11T14:28:46.014Z,53.45
2022-08-11T14:31:17.650Z,52.88
2022-08-11T14:34:00.199Z,54.64
2022-08-11T14:36:35.526Z,56.51
2022-08-11T14:39:11.756Z,54.92
2022-08-11T14:42:10.009Z,55.69
2022-08-11T14:45:04.078Z,54.55
2022-08-11T14:47:37.068Z,55.70
2022-08-11T14:50:14.934Z,55.79
2022-08-11T14:52:50.910Z,56.26
2022-08-11T14:55:40.941Z,57.64
2022-08-11T14:58:14.148Z,55.87
2022-08-11T15:00:44.762Z,57.89
2022-08-11T15:03:15.409Z,60.01
2022-08-11T15:05:56.030Z,57.46
2022-08-11T15:08:47.037Z,57.09
2022-08-11T15:11:36.704Z,59.19
2022-08-11T15:14:09.433Z,59.43
2022-08-11T15:17:00.003Z,59.17
2022-08-11T15:19:37.528Z,58.32
2022-08-11T15:22:29.624Z,54.88
2022-08-11T15:25:00.061Z,53.08
2022-08-11T15:27:51.817Z,52.05
2022-08-11T15:30:37.413Z,50.86
2022-08-11T15:33:26.757Z,51.15
2022-08-11T15:36:16.516Z,51.25
2022-08-11T15:38:56.354Z,51.11
2022-08-11T15:41:58.619Z,50.76
2022-08-11T15:45:02.801Z,50.24
2022-08-11T15:47:41.808Z,53.38
2022-08-11T15:50:21.948Z,54.65
2022-08-11T15:52:57.190Z,54.32
2022-08-11T15:55:30.132Z,54.06
2022-08-11T15:58:22.437Z,49.27
2022-08-11T16:01:12.021Z,53.10
2022-08-11T16:04:09.049Z,52.89
2022-08-11T16:06:49.300Z,51.50
2022-08-11T16:09:29.114Z,52.56
2022-08-11T16:12:13.877Z,49.66
2022-08-11T16:15:04.846Z,55.24
2022-08-11T16:17:44.413Z,51.42
2022-08-11T16:20:18.459Z,51.83
2022-08-11T16:22:55.168Z,49.39
2022-08-11T16:27:04.810Z,47.49
2022-08-11T16:28:27.755Z,48.16
2022-08-11T16:30:58.780Z,50.09
2022-08-11T16:33:51.113Z,46.30
2022-08-11T16:36:38.735Z,47.97
2022-08-11T16:39:09.371Z,47.42
2022-08-11T16:41:58.961Z,49.76
2022-08-11T16:44:49.323Z,50.22
2022-08-11T16:47:53.820Z,51.51
2022-08-11T16:50:12.399Z,51.13
2022-08-11T16:52:42.224Z,54.07
2022-08-11T16:55:11.506Z,61.93
2022-08-11T16:58:18.604Z,64.27
2022-08-11T17:00:52.292Z,63.37
2022-08-11T17:03:40.648Z,64.89
2022-08-11T17:06:29.869Z,64.17
2022-08-11T17:09:22.113Z,61.90
2022-08-11T17:12:14.738Z,60.74
2022-08-11T17:14:50.932Z,64.13
2022-08-11T17:17:29.746Z,67.85
2022-08-11T17:20:39.529Z,69.42
2022-08-11T17:23:16.369Z,67.63
2022-08-11T17:26:03.929Z,68.83
2022-08-11T17:28:36.050Z,72.00
2022-08-11T17:31:24.450Z,71.67
2022-08-11T17:34:15.671Z,67.30
2022-08-11T17:36:46.030Z,70.17
2022-08-11T17:39:16.965Z,71.03
2022-08-11T17:42:04.599Z,72.40
2022-08-11T17:44:54.139Z,74.10
2022-08-11T17:47:44.316Z,75.59
2022-08-11T17:50:17.817Z,75.94
2022-08-11T17:53:06.358Z,76.27
2022-08-11T17:55:57.659Z,76.35
2022-08-11T17:58:45.961Z,76.00
2022-08-11T18:01:17.016Z,75.61
2022-08-11T18:03:53.249Z,75.52
2022-08-11T18:06:34.238Z,75.72
2022-08-11T18:09:27.545Z,76.51
2022-08-11T18:12:16.260Z,78.20
2022-08-11T18:15:08.264Z,79.74
2022-08-11T18:17:56.002Z,79.43
2022-08-11T18:20:42.867Z,79.00
2022-08-11T18:23:42.084Z,81.95
2022-08-11T18:26:39.214Z,81.37
2022-08-11T18:29:28.508Z,82.23
2022-08-11T18:32:20.916Z,83.01
2022-08-11T18:35:12.571Z,82.47
2022-08-11T18:38:07.505Z,82.01
2022-08-11T18:40:56.760Z,82.29
2022-08-11T18:43:47.006Z,82.56
2022-08-11T18:46:37.109Z,79.18
2022-08-11T18:50:01.734Z,80.84
2022-08-11T18:52:42.319Z,77.86
2022-08-11T18:55:35.216Z,74.57
2022-08-11T18:58:28.866Z,78.04
2022-08-11T19:01:18.697Z,80.45
2022-08-11T19:04:11.854Z,76.82
2022-08-11T19:07:08.663Z,77.31
2022-08-11T19:09:59.081Z,81.17
2022-08-11T19:12:50.927Z,80.18
2022-08-11T19:15:41.108Z,74.82
2022-08-11T19:18:35.298Z,75.55
2022-08-11T19:21:23.087Z,79.81
2022-08-11T19:24:15.357Z,78.15
2022-08-11T19:27:03.285Z,80.41
2022-08-11T19:30:04.906Z,80.84
2022-08-11T19:33:02.260Z,74.20
2022-08-11T19:35:52.481Z,78.76
2022-08-11T19:38:40.879Z,81.07
2022-08-11T19:41:57.009Z,75.91
2022-08-11T19:44:39.021Z,75.59
2022-08-11T19:47:27.686Z,79.30
2022-08-11T19:50:21.905Z,80.17
2022-08-11T19:53:17.306Z,81.93
2022-08-11T19:56:06.109Z,81.33
2022-08-11T19:58:54.479Z,81.13
2022-08-11T20:02:01.641Z,81.63
2022-08-11T20:04:47.827Z,81.82
2022-08-11T20:07:39.347Z,83.85
2022-08-11T20:10:29.532Z,84.45
2022-08-11T20:13:21.536Z,82.14
2022-08-11T20:16:11.903Z,82.24
2022-08-11T20:18:59.958Z,83.19
2022-08-11T20:21:47.793Z,83.98
2022-08-11T20:24:38.381Z,82.47
2022-08-11T20:27:28.388Z,80.64
2022-08-11T20:30:18.789Z,82.82
2022-08-11T20:33:06.706Z,84.96
2022-08-11T20:35:54.991Z,84.42
2022-08-11T20:38:44.289Z,81.59
2022-08-11T20:41:33.487Z,82.14
2022-08-11T20:44:41.941Z,80.43
2022-08-11T20:47:30.442Z,80.67
2022-08-11T20:50:20.342Z,82.99
2022-08-11T20:53:08.690Z,85.01
2022-08-11T20:55:55.830Z,84.39
2022-08-11T21:01:54.007Z,86.22
2022-08-11T21:04:54.752Z,86.09
2022-08-11T21:07:55.505Z,85.70
2022-08-11T21:10:51.123Z,86.66
2022-08-11T21:13:43.714Z,87.87
2022-08-11T21:16:37.375Z,88.28
2022-08-11T21:20:00.246Z,85.32
2022-08-11T21:22:58.957Z,82.33
2022-08-11T21:25:59.301Z,85.14
2022-08-11T21:28:48.774Z,85.29
2022-08-11T21:31:36.878Z,84.31
2022-08-11T21:34:26.583Z,82.71
2022-08-11T21:37:13.241Z,78.96
2022-08-11T21:40:01.590Z,76.48
2022-08-11T21:42:51.507Z,77.08
2022-08-11T21:45:40.276Z,75.93
2022-08-11T21:48:30.437Z,79.60
2022-08-11T21:51:16.940Z,82.06
2022-08-11T21:54:03.973Z,83.44
2022-08-11T21:56:52.746Z,84.73
2022-08-11T21:59:59.847Z,85.25
2022-08-11T22:02:53.252Z,86.25
2022-08-11T22:05:41.291Z,87.49
2022-08-11T22:08:28.805Z,86.46
2022-08-11T22:11:16.856Z,84.64
2022-08-11T22:14:19.339Z,84.62
2022-08-11T22:17:05.572Z,85.77
2022-08-11T22:19:55.640Z,86.97
2022-08-11T22:22:52.374Z,88.14
2022-08-11T22:25:46.568Z,87.36
2022-08-11T22:28:38.887Z,87.35
2022-08-11T22:31:28.978Z,86.27
2022-08-11T22:34:15.233Z,85.10
2022-08-11T22:37:06.826Z,83.91
2022-08-11T22:40:02.266Z,84.23
2022-08-11T22:42:50.404Z,85.22
2022-08-11T22:45:37.217Z,83.66
2022-08-11T22:48:26.275Z,85.34
2022-08-11T22:51:14.311Z,85.24
2022-08-11T22:54:04.071Z,86.12
2022-08-11T22:56:52.439Z,86.54
2022-08-11T22:59:40.606Z,85.15
2022-08-11T23:02:27.657Z,86.25
2022-08-11T23:05:16.756Z,86.59
2022-08-11T23:08:04.508Z,87.52
2022-08-11T23:10:53.050Z,87.94
2022-08-11T23:13:40.854Z,88.18
2022-08-11T23:16:27.900Z,85.85
2022-08-11T23:20:06.328Z,85.39
2022-08-11T23:22:23.175Z,85.63
2022-08-11T23:25:24.289Z,84.22
2022-08-11T23:28:14.050Z,85.90
2022-08-11T23:31:02.725Z,87.64
2022-08-11T23:33:51.814Z,86.32
2022-08-11T23:36:47.257Z,82.62
2022-08-11T23:39:35.073Z,83.01
2022-08-11T23:42:21.953Z,81.04
2022-08-11T23:45:11.769Z,79.40
2022-08-11T23:48:00.169Z,81.50
2022-08-11T23:50:47.724Z,81.83
2022-08-11T23:53:36.359Z,82.97
2022-08-11T23:56:23.181Z,82.65
2022-08-11T23:59:11.028Z,82.11
